createdAt,value
2016-11-10T00:04:25.808Z,995.00
2016-11-10T00:09:22.151Z,995.15
2016-11-10T00:14:18.498Z,995.15
2016-11-10T00:19:14.813Z,995.10
2016-11-10T00:24:10.995Z,995.22
2016-11-10T00:29:08.150Z,995.28
2016-11-10T00:34:04.428Z,995.35
2016-11-10T00:39:00.905Z,995.29
2016-11-10T00:43:57.333Z,995.38
2016-11-10T00:48:53.972Z,995.40
2016-11-10T00:53:49.978Z,995.51
2016-11-10T00:58:46.451Z,995.56
2016-11-10T01:03:42.835Z,995.64
2016-11-10T01:08:39.287Z,995.66
2016-11-10T01:13:35.978Z,995.76
2016-11-10T01:18:32.211Z,995.80
2016-11-10T01:23:28.464Z,995.87
2016-11-10T01:28:24.752Z,995.88
2016-11-10T01:33:21.121Z,995.96
2016-11-10T01:38:17.458Z,996.02
2016-11-10T01:43:14.516Z,995.94
2016-11-10T01:48:10.545Z,995.99
2016-11-10T01:53:06.880Z,996.05
2016-11-10T01:58:03.290Z,996.09
2016-11-10T02:02:59.572Z,996.17
2016-11-10T02:07:55.774Z,996.21
2016-11-10T02:12:52.425Z,996.15
2016-11-10T02:17:48.886Z,996.17
2016-11-10T02:22:45.289Z,996.09
2016-11-10T02:27:41.597Z,996.14
2016-11-10T02:32:38.019Z,996.15
2016-11-10T02:37:34.566Z,996.18
2016-11-10T02:42:30.877Z,996.22
2016-11-10T02:47:27.357Z,996.34
2016-11-10T02:52:23.668Z,996.46
2016-11-10T02:57:20.655Z,996.57
2016-11-10T03:02:16.980Z,996.56
2016-11-10T03:07:13.609Z,996.63
2016-11-10T03:12:09.957Z,996.67
2016-11-10T03:17:06.411Z,996.66
2016-11-10T03:22:02.686Z,996.71
2016-11-10T03:26:59.137Z,996.67
2016-11-10T03:31:55.483Z,996.75
2016-11-10T03:36:51.415Z,996.68
2016-11-10T03:41:47.901Z,996.68
2016-11-10T03:46:44.337Z,996.78
2016-11-10T03:51:41.605Z,996.80
2016-11-10T03:56:37.953Z,996.78
2016-11-10T04:01:34.309Z,996.78
2016-11-10T04:06:30.832Z,996.87
2016-11-10T04:11:27.211Z,996.88
2016-11-10T04:16:24.018Z,996.85
2016-11-10T04:21:20.225Z,996.89
2016-11-10T04:26:16.622Z,996.93
2016-11-10T04:31:13.289Z,996.94
2016-11-10T04:36:09.730Z,997.02
2016-11-10T04:41:05.890Z,997.03
2016-11-10T04:46:02.339Z,997.03
2016-11-10T04:50:58.585Z,997.07
2016-11-10T04:55:54.960Z,997.15
2016-11-10T05:00:51.368Z,997.26
2016-11-10T05:05:47.639Z,997.20
2016-11-10T05:10:44.035Z,997.30
2016-11-10T05:15:40.563Z,997.36
2016-11-10T05:20:36.850Z,997.39
2016-11-10T05:25:33.486Z,997.40
2016-11-10T05:30:29.897Z,997.46
2016-11-10T05:35:26.284Z,997.50
2016-11-10T05:40:22.567Z,997.52
2016-11-10T05:45:18.852Z,997.63
2016-11-10T05:50:15.304Z,997.73
2016-11-10T05:55:12.027Z,997.77
2016-11-10T06:00:08.317Z,997.83
2016-11-10T06:05:04.800Z,997.95
2016-11-10T06:10:01.164Z,998.04
2016-11-10T06:14:57.569Z,998.08
2016-11-10T06:19:53.836Z,998.14
2016-11-10T06:24:50.178Z,998.17
2016-11-10T06:29:46.702Z,998.35
2016-11-10T06:34:42.664Z,998.31
2016-11-10T06:39:39.339Z,998.34
2016-11-10T06:44:35.854Z,998.39
2016-11-10T06:49:32.363Z,998.60
2016-11-10T06:54:28.612Z,998.54
2016-11-10T06:59:25.102Z,998.63
2016-11-10T07:04:21.450Z,998.67
2016-11-10T07:09:17.935Z,998.70
2016-11-10T07:14:14.134Z,998.73
2016-11-10T07:19:10.436Z,998.81
2016-11-10T07:24:06.504Z,998.79
2016-11-10T07:29:02.985Z,998.93
2016-11-10T07:33:59.460Z,998.98
2016-11-10T07:38:55.827Z,999.08
2016-11-10T07:43:52.534Z,999.13
2016-11-10T07:48:48.992Z,999.13
2016-11-10T07:53:46.284Z,999.24
2016-11-10T07:58:42.634Z,999.18
2016-11-10T08:03:38.958Z,999.21
2016-11-10T08:08:35.366Z,999.37
2016-11-10T08:13:31.882Z,999.34
2016-11-10T08:18:28.068Z,999.37
2016-11-10T08:23:24.503Z,999.39
2016-11-10T08:28:20.957Z,999.42
2016-11-10T08:33:17.268Z,999.36
2016-11-10T08:38:14.313Z,999.37
2016-11-10T08:43:10.748Z,999.47
2016-11-10T08:48:06.980Z,999.41
2016-11-10T08:53:03.506Z,999.42
2016-11-10T08:57:59.664Z,999.48
2016-11-10T09:02:56.047Z,999.49
2016-11-10T09:07:52.534Z,999.58
2016-11-10T09:12:49.046Z,999.56
2016-11-10T09:17:45.909Z,999.63
2016-11-10T09:22:43.103Z,999.55
2016-11-10T09:27:39.578Z,999.61
2016-11-10T09:32:35.682Z,999.62
2016-11-10T09:37:32.160Z,999.64
2016-11-10T09:42:28.559Z,999.68
2016-11-10T09:47:25.113Z,999.73
2016-11-10T09:52:21.656Z,999.76
2016-11-10T09:57:17.888Z,999.68
2016-11-10T10:02:14.251Z,999.81
2016-11-10T10:07:10.589Z,999.86
2016-11-10T10:12:06.988Z,999.83
2016-11-10T10:17:03.591Z,999.78
2016-11-10T10:21:59.824Z,999.89
2016-11-10T10:26:56.140Z,999.91
2016-11-10T10:31:52.427Z,999.88
2016-11-10T10:36:48.710Z,999.89
2016-11-10T10:41:45.131Z,999.82
2016-11-10T10:46:41.107Z,999.85
2016-11-10T10:51:38.371Z,999.77
2016-11-10T10:56:34.428Z,999.81
2016-11-10T11:01:31.525Z,999.67
2016-11-10T11:06:28.074Z,999.73
2016-11-10T11:11:24.485Z,999.63
2016-11-10T11:16:21.240Z,999.62
2016-11-10T11:21:17.727Z,999.55
2016-11-10T11:26:14.142Z,999.58
2016-11-10T11:31:10.595Z,999.56
2016-11-10T11:36:06.938Z,999.45
2016-11-10T11:41:03.440Z,999.45
2016-11-10T11:45:59.889Z,999.53
2016-11-10T11:50:56.219Z,999.40
2016-11-10T11:55:54.047Z,999.44
2016-11-10T12:00:50.487Z,999.51
2016-11-10T12:05:47.113Z,999.49
2016-11-10T12:10:43.424Z,999.62
2016-11-10T12:15:39.756Z,999.47
2016-11-10T12:20:36.158Z,999.58
2016-11-10T12:25:32.433Z,999.60
2016-11-10T12:30:28.748Z,999.58
2016-11-10T12:35:25.028Z,999.56
2016-11-10T12:40:21.459Z,999.38
2016-11-10T12:45:18.372Z,999.35
2016-11-10T12:50:14.990Z,999.28
2016-11-10T12:55:11.294Z,999.37
2016-11-10T13:00:07.595Z,999.30
2016-11-10T13:05:04.150Z,999.31
2016-11-10T13:10:00.735Z,999.27
2016-11-10T13:14:57.087Z,999.39
2016-11-10T13:19:53.493Z,999.37
2016-11-10T13:24:49.919Z,999.44
2016-11-10T13:29:46.158Z,999.43
2016-11-10T13:34:42.212Z,999.32
2016-11-10T13:39:38.411Z,999.35
2016-11-10T13:44:34.815Z,999.41
2016-11-10T13:49:31.122Z,999.40
2016-11-10T13:54:27.622Z,999.35
2016-11-10T13:59:24.313Z,999.43
2016-11-10T14:04:20.811Z,999.33
2016-11-10T14:09:17.164Z,999.35
2016-11-10T14:14:13.427Z,999.29
2016-11-10T14:19:09.951Z,999.46
2016-11-10T14:24:06.363Z,999.52
2016-11-10T14:29:02.862Z,999.46
2016-11-10T14:33:59.251Z,999.51
2016-11-10T14:38:55.485Z,999.50
2016-11-10T14:43:51.778Z,999.48
2016-11-10T14:48:48.189Z,999.54
2016-11-10T14:53:44.348Z,999.50
2016-11-10T14:58:40.739Z,999.55
2016-11-10T15:03:37.378Z,999.46
2016-11-10T15:08:33.571Z,999.46
2016-11-10T15:13:29.855Z,999.56
2016-11-10T15:18:26.224Z,999.50
2016-11-10T15:23:22.505Z,999.51
2016-11-10T15:28:18.851Z,999.49
2016-11-10T15:33:15.220Z,999.53
2016-11-10T15:38:11.640Z,999.57
2016-11-10T15:43:08.027Z,999.63
2016-11-10T15:48:04.353Z,999.65
2016-11-10T15:53:00.810Z,999.60
2016-11-10T15:57:57.144Z,999.66
2016-11-10T16:02:54.204Z,999.61
2016-11-10T16:07:50.702Z,999.66
2016-11-10T16:12:47.228Z,999.68
2016-11-10T16:17:43.584Z,999.65
2016-11-10T16:22:40.058Z,999.66
2016-11-10T16:27:36.385Z,999.70
2016-11-10T16:32:32.861Z,999.64
2016-11-10T16:37:30.042Z,999.72
2016-11-10T16:42:27.177Z,999.70
2016-11-10T16:47:23.659Z,999.64
2016-11-10T16:52:19.924Z,999.75
2016-11-10T16:57:16.253Z,999.74
2016-11-10T17:02:12.656Z,999.76
2016-11-10T17:07:09.687Z,999.81
2016-11-10T17:12:06.144Z,999.77
2016-11-10T17:17:02.639Z,999.80
2016-11-10T17:21:58.928Z,999.89
2016-11-10T17:26:55.286Z,999.76
2016-11-10T17:31:54.067Z,999.74
2016-11-10T17:36:50.065Z,999.87
2016-11-10T17:41:46.359Z,999.90
2016-11-10T17:46:42.946Z,999.90
2016-11-10T17:51:38.984Z,999.87
2016-11-10T17:56:35.384Z,999.90
2016-11-10T18:01:31.763Z,999.91
2016-11-10T18:06:28.189Z,1000.04
2016-11-10T18:11:24.291Z,1000.02
2016-11-10T18:16:21.327Z,1000.05
2016-11-10T18:21:18.181Z,1000.03
2016-11-10T18:26:14.709Z,1000.01
2016-11-10T18:31:10.960Z,1000.09
2016-11-10T18:36:07.776Z,999.99
2016-11-10T18:41:04.068Z,1000.00
2016-11-10T18:46:01.009Z,999.99
2016-11-10T18:50:57.920Z,999.99
2016-11-10T18:55:54.236Z,999.86
2016-11-10T19:00:50.572Z,999.75
2016-11-10T19:05:46.958Z,999.65
2016-11-10T19:10:43.391Z,999.69
2016-11-10T19:15:39.813Z,999.71
2016-11-10T19:20:36.144Z,999.82
2016-11-10T19:25:32.642Z,999.81
2016-11-10T19:30:28.881Z,999.76
2016-11-10T19:35:25.316Z,999.85
2016-11-10T19:40:22.301Z,999.82
2016-11-10T19:45:18.532Z,999.75
2016-11-10T19:50:15.028Z,999.71
2016-11-10T19:55:12.058Z,999.80
2016-11-10T20:00:08.413Z,999.63
2016-11-10T20:05:04.743Z,999.69
2016-11-10T20:10:01.070Z,999.66
2016-11-10T20:14:58.401Z,999.65
2016-11-10T20:19:54.577Z,999.60
2016-11-10T20:24:50.909Z,999.61
2016-11-10T20:29:47.229Z,999.62
2016-11-10T20:34:43.659Z,999.49
2016-11-10T20:39:40.146Z,999.51
2016-11-10T20:44:36.513Z,999.49
2016-11-10T20:49:35.475Z,999.46
2016-11-10T20:54:31.159Z,999.48
2016-11-10T20:59:27.398Z,999.50
2016-11-10T21:04:23.905Z,999.52
2016-11-10T21:09:20.681Z,999.42
2016-11-10T21:14:17.283Z,999.53
2016-11-10T21:19:13.596Z,999.53
2016-11-10T21:24:10.301Z,999.58
2016-11-10T21:29:06.527Z,999.60
2016-11-10T21:34:03.738Z,999.44
2016-11-10T21:39:01.497Z,999.57
2016-11-10T21:43:57.898Z,999.58
2016-11-10T21:48:54.167Z,999.57
2016-11-10T21:53:50.483Z,999.60
2016-11-10T21:58:46.877Z,999.57
2016-11-10T22:03:43.275Z,999.55
2016-11-10T22:08:39.548Z,999.69
2016-11-10T22:13:35.929Z,999.65
2016-11-10T22:18:32.307Z,999.59
2016-11-10T22:23:28.836Z,999.56
2016-11-10T22:28:27.877Z,999.66
2016-11-10T22:33:23.676Z,999.65
2016-11-10T22:38:19.796Z,999.65
2016-11-10T22:43:16.082Z,999.62
2016-11-10T22:48:12.599Z,999.70
2016-11-10T22:53:08.941Z,999.66
2016-11-10T22:58:05.347Z,999.68
2016-11-10T23:03:01.736Z,999.73
2016-11-10T23:07:57.874Z,999.82
2016-11-10T23:12:54.181Z,999.77
2016-11-10T23:17:50.917Z,999.82
2016-11-10T23:22:47.093Z,999.85
2016-11-10T23:27:43.463Z,999.84
2016-11-10T23:32:39.939Z,999.79
2016-11-10T23:37:37.003Z,999.81
2016-11-10T23:42:33.381Z,999.86
2016-11-10T23:47:29.604Z,1000.00
2016-11-10T23:52:25.906Z,1000.10
2016-11-10T23:57:22.283Z,1000.09
